createdAt,value
2023-05-07T00:01:41.023Z,8.00
2023-05-07T00:06:44.427Z,8.35
2023-05-07T00:11:47.847Z,7.20
2023-05-07T00:16:52.680Z,7.40
2023-05-07T00:21:56.889Z,5.63
2023-05-07T00:27:00.322Z,5.90
2023-05-07T00:32:05.698Z,6.15
2023-05-07T00:37:09.873Z,6.82
2023-05-07T00:42:13.381Z,7.50
2023-05-07T00:47:18.888Z,6.95
2023-05-07T00:52:28.038Z,8.23
2023-05-07T00:57:31.557Z,6.72
2023-05-07T01:02:36.817Z,6.25
2023-05-07T01:07:43.066Z,3.92
2023-05-07T01:12:48.087Z,8.27
2023-05-07T01:17:52.963Z,7.15
2023-05-07T01:23:06.470Z,5.55
2023-05-07T01:28:09.871Z,7.77
2023-05-07T01:33:18.234Z,6.38
2023-05-07T01:38:24.854Z,5.73
2023-05-07T01:43:28.708Z,4.77
2023-05-07T01:48:33.104Z,7.75
2023-05-07T01:53:41.552Z,6.30
2023-05-07T01:58:44.910Z,4.28
2023-05-07T02:03:48.408Z,5.95
2023-05-07T02:09:00.592Z,4.47
2023-05-07T02:14:05.439Z,7.28
2023-05-07T02:19:08.959Z,3.92
2023-05-07T02:24:14.226Z,4.03
2023-05-07T02:29:18.531Z,4.97
2023-05-07T02:34:23.003Z,5.55
2023-05-07T02:39:27.879Z,5.20
2023-05-07T02:44:32.424Z,3.78
2023-05-07T02:49:35.944Z,5.57
2023-05-07T02:54:41.675Z,4.47
2023-05-07T02:59:45.619Z,4.30
2023-05-07T03:04:51.043Z,3.92
2023-05-07T03:09:55.766Z,3.95
2023-05-07T03:14:59.342Z,4.82
2023-05-07T03:20:03.076Z,3.75
2023-05-07T03:25:10.852Z,5.47
2023-05-07T03:30:15.491Z,5.35
2023-05-07T03:35:19.316Z,9.00
2023-05-07T03:40:24.676Z,5.90
2023-05-07T03:45:30.913Z,6.45
2023-05-07T03:50:44.099Z,4.63
2023-05-07T03:55:49.056Z,2.97
2023-05-07T04:00:52.433Z,5.40
2023-05-07T04:06:03.457Z,4.65
2023-05-07T04:11:10.146Z,4.82
2023-05-07T04:16:15.197Z,3.17
2023-05-07T04:21:20.356Z,4.88
2023-05-07T04:26:26.359Z,5.22
2023-05-07T04:31:29.947Z,3.72
2023-05-07T04:36:34.201Z,5.03
2023-05-07T04:41:42.982Z,4.20
2023-05-07T04:46:47.030Z,3.80
2023-05-07T04:51:50.549Z,5.38
2023-05-07T04:56:58.938Z,3.45
2023-05-07T05:02:02.540Z,5.25
2023-05-07T05:07:06.995Z,4.25
2023-05-07T05:12:11.845Z,3.67
2023-05-07T05:17:16.004Z,2.80
2023-05-07T05:22:19.591Z,4.28
2023-05-07T05:27:24.599Z,5.72
2023-05-07T05:32:28.447Z,4.63
2023-05-07T05:37:34.137Z,4.22
2023-05-07T05:42:43.061Z,4.53
2023-05-07T05:47:47.500Z,3.08
2023-05-07T05:52:51.828Z,5.47
2023-05-07T05:57:59.535Z,2.67
2023-05-07T06:03:03.993Z,4.13
2023-05-07T06:08:07.570Z,3.90
2023-05-07T06:13:13.856Z,4.95
2023-05-07T06:18:18.404Z,3.75
2023-05-07T06:23:22.831Z,4.05
2023-05-07T06:28:28.538Z,7.35
2023-05-07T06:33:33.709Z,4.15
2023-05-07T06:38:37.916Z,18.13
2023-05-07T06:43:42.750Z,12.35
2023-05-07T06:49:02.361Z,11.02
2023-05-07T06:54:06.472Z,9.73
2023-05-07T06:59:12.802Z,10.32
2023-05-07T07:04:18.539Z,6.95
2023-05-07T07:09:27.833Z,6.05
2023-05-07T07:14:33.116Z,4.85
2023-05-07T07:19:37.337Z,12.85
2023-05-07T07:24:41.071Z,8.82
2023-05-07T07:29:48.744Z,7.95
2023-05-07T07:34:52.466Z,8.05
2023-05-07T07:39:55.895Z,11.93
2023-05-07T07:45:00.887Z,9.65
2023-05-07T07:50:10.861Z,10.55
2023-05-07T07:55:14.884Z,6.72
2023-05-07T08:00:20.786Z,8.63
2023-05-07T08:05:29.334Z,8.00
2023-05-07T08:10:35.806Z,8.20
2023-05-07T08:15:46.105Z,6.55
2023-05-07T08:20:50.620Z,7.05
2023-05-07T08:31:03.074Z,6.30
2023-05-07T08:36:11.238Z,7.72
2023-05-07T08:41:15.262Z,5.97
2023-05-07T08:46:24.950Z,5.90
2023-05-07T08:51:32.351Z,7.72
2023-05-07T08:56:36.451Z,5.10
2023-05-07T09:01:41.509Z,6.05
2023-05-07T09:06:45.258Z,7.18
2023-05-07T09:11:51.832Z,6.00
2023-05-07T09:16:58.575Z,8.90
2023-05-07T09:22:03.436Z,10.88
2023-05-07T09:27:14.457Z,22.42
2023-05-07T09:32:21.100Z,22.30
2023-05-07T09:37:24.861Z,21.27
2023-05-07T09:42:29.312Z,22.58
2023-05-07T09:47:41.745Z,18.67
2023-05-07T09:52:47.768Z,14.88
2023-05-07T09:57:54.432Z,11.25
2023-05-07T10:03:00.699Z,19.07
2023-05-07T10:08:14.736Z,17.27
2023-05-07T10:13:21.820Z,31.27
2023-05-07T10:18:33.738Z,31.30
2023-05-07T10:23:47.659Z,18.67
2023-05-07T10:29:00.622Z,20.55
2023-05-07T10:34:12.200Z,15.88
2023-05-07T10:39:15.808Z,34.13
2023-05-07T10:44:29.710Z,34.58
2023-05-07T10:54:48.904Z,19.20
2023-05-07T10:59:54.738Z,25.60
2023-05-07T11:05:23.318Z,19.73
2023-05-07T11:10:56.041Z,20.63
2023-05-07T11:16:07.704Z,15.25
2023-05-07T11:21:36.020Z,19.83
2023-05-07T11:27:06.347Z,19.52
2023-05-07T11:32:10.355Z,14.75
2023-05-07T11:37:22.355Z,15.70
2023-05-07T11:42:36.742Z,17.95
2023-05-07T11:47:40.335Z,16.33
2023-05-07T11:52:54.314Z,17.20
2023-05-07T11:57:57.710Z,13.48
2023-05-07T12:03:07.070Z,23.33
2023-05-07T12:08:17.040Z,15.52
2023-05-07T12:13:22.416Z,15.18
2023-05-07T12:18:26.214Z,16.35
2023-05-07T12:23:31.816Z,14.57
2023-05-07T12:28:40.650Z,14.75
2023-05-07T12:33:44.404Z,9.85
2023-05-07T12:38:52.312Z,10.30
2023-05-07T12:43:59.546Z,8.90
2023-05-07T12:49:02.970Z,10.43
2023-05-07T12:54:07.722Z,11.07
2023-05-07T12:59:11.474Z,9.77
2023-05-07T13:04:14.851Z,9.63
2023-05-07T13:09:19.582Z,11.63
2023-05-07T13:14:23.043Z,7.55
2023-05-07T13:19:26.486Z,8.27
2023-05-07T13:24:31.469Z,8.45
2023-05-07T13:29:34.851Z,9.05
2023-05-07T13:34:38.658Z,6.72
2023-05-07T13:39:43.436Z,6.88
2023-05-07T13:44:47.062Z,8.43
2023-05-07T13:49:51.479Z,5.47
2023-05-07T13:54:57.467Z,8.25
2023-05-07T14:00:00.993Z,7.22
2023-05-07T14:05:05.888Z,5.53
2023-05-07T14:10:12.664Z,6.88
2023-05-07T14:15:17.239Z,4.70
2023-05-07T14:20:20.626Z,5.10
2023-05-07T14:25:25.379Z,4.53
2023-05-07T14:30:29.268Z,5.57
2023-05-07T14:35:32.960Z,4.15
2023-05-07T14:40:37.733Z,4.63
2023-05-07T14:45:41.166Z,4.82
2023-05-07T14:50:44.637Z,4.03
2023-05-07T14:55:50.176Z,2.75
2023-05-07T15:00:53.767Z,3.88
2023-05-07T15:05:57.350Z,4.13
2023-05-07T15:11:02.213Z,4.25
2023-05-07T15:16:05.908Z,7.70
2023-05-07T15:21:09.462Z,5.90
2023-05-07T15:26:15.182Z,7.95
2023-05-07T15:31:18.969Z,4.43
2023-05-07T15:36:23.135Z,4.95
2023-05-07T15:41:28.265Z,4.22
2023-05-07T15:46:31.695Z,3.95
2023-05-07T15:51:37.686Z,5.32
2023-05-07T15:56:42.441Z,7.75
2023-05-07T16:01:46.281Z,9.52
2023-05-07T16:06:49.854Z,7.85
2023-05-07T16:11:54.662Z,5.53
2023-05-07T16:16:58.502Z,7.10
2023-05-07T16:22:02.024Z,5.70
2023-05-07T16:27:07.424Z,7.35
2023-05-07T16:32:10.857Z,5.57
2023-05-07T16:37:14.410Z,4.68
2023-05-07T16:42:19.162Z,4.80
2023-05-07T16:47:23.008Z,4.82
2023-05-07T16:52:26.392Z,3.22
2023-05-07T16:57:31.877Z,4.68
2023-05-07T17:02:35.955Z,4.05
2023-05-07T17:07:39.437Z,4.38
2023-05-07T17:12:44.290Z,4.65
2023-05-07T17:17:47.730Z,4.00
2023-05-07T17:22:51.511Z,5.68
2023-05-07T17:27:56.637Z,7.70
2023-05-07T17:33:12.871Z,10.82
2023-05-07T17:38:20.594Z,7.07
2023-05-07T17:43:25.432Z,13.15
2023-05-07T17:48:28.845Z,11.60
2023-05-07T17:53:32.621Z,9.35
2023-05-07T17:58:53.326Z,10.40
2023-05-07T18:04:01.083Z,9.35
2023-05-07T18:09:05.170Z,9.27
2023-05-07T18:14:09.949Z,6.13
2023-05-07T18:19:13.355Z,7.07
2023-05-07T18:24:16.905Z,6.38
2023-05-07T18:29:21.841Z,7.38
2023-05-07T18:34:25.279Z,6.68
2023-05-07T18:39:28.672Z,6.60
2023-05-07T18:44:37.401Z,4.20
2023-05-07T18:49:40.810Z,5.90
2023-05-07T18:54:45.680Z,5.82
2023-05-07T18:59:50.465Z,6.15
2023-05-07T19:04:54.408Z,5.93
2023-05-07T19:10:04.826Z,6.50
2023-05-07T19:15:12.457Z,4.85
2023-05-07T19:20:15.866Z,6.90
2023-05-07T19:25:19.602Z,4.95
2023-05-07T19:30:24.797Z,5.15
2023-05-07T19:35:28.276Z,5.70
2023-05-07T19:40:32.674Z,5.53
2023-05-07T19:45:37.644Z,8.25
2023-05-07T19:50:41.228Z,5.45
2023-05-07T19:55:44.633Z,6.43
2023-05-07T20:00:49.490Z,5.53
2023-05-07T20:05:52.868Z,4.78
2023-05-07T20:10:59.280Z,3.33
2023-05-07T20:16:04.414Z,4.13
2023-05-07T20:21:08.029Z,6.20
2023-05-07T20:26:11.485Z,5.07
2023-05-07T20:31:16.968Z,4.47
2023-05-07T20:36:20.378Z,4.25
2023-05-07T20:41:25.399Z,3.53
2023-05-07T20:46:30.343Z,5.90
2023-05-07T20:51:33.845Z,4.90
2023-05-07T20:56:37.239Z,4.80
2023-05-07T21:01:42.759Z,7.90
2023-05-07T21:06:46.228Z,11.65
2023-05-07T21:11:49.680Z,5.90
2023-05-07T21:16:54.505Z,8.60
2023-05-07T21:21:58.346Z,8.27
2023-05-07T21:27:02.789Z,7.45
2023-05-07T21:32:07.749Z,4.57
2023-05-07T21:37:11.142Z,6.75
2023-05-07T21:42:14.536Z,4.55
2023-05-07T21:47:19.425Z,4.82
2023-05-07T21:52:25.941Z,7.10
2023-05-07T21:57:29.716Z,4.13
2023-05-07T22:02:34.659Z,4.57
2023-05-07T22:07:38.058Z,4.68
2023-05-07T22:12:41.798Z,5.90
2023-05-07T22:17:46.689Z,3.20
2023-05-07T22:22:52.686Z,4.07
2023-05-07T22:27:56.474Z,3.58
2023-05-07T22:33:01.387Z,3.17
2023-05-07T22:38:05.169Z,4.10
2023-05-07T22:43:08.525Z,4.35
2023-05-07T22:48:13.292Z,5.00
2023-05-07T22:53:16.967Z,7.00
2023-05-07T22:58:20.418Z,5.10
2023-05-07T23:03:25.194Z,6.20
2023-05-07T23:08:28.609Z,4.13
2023-05-07T23:13:31.960Z,4.38
2023-05-07T23:18:36.732Z,5.70
2023-05-07T23:23:40.149Z,3.42
2023-05-07T23:28:43.716Z,3.58
2023-05-07T23:33:48.503Z,3.08
2023-05-07T23:38:51.877Z,3.95
2023-05-07T23:43:55.361Z,3.63
2023-05-07T23:49:00.119Z,3.20
2023-05-07T23:54:03.636Z,3.58
2023-05-07T23:59:07.071Z,4.53
